createdAt,value
2019-05-17T00:00:28.924Z,7.37
2019-05-17T00:02:59.509Z,7.05
2019-05-17T00:05:29.872Z,6.97
2019-05-17T00:07:59.334Z,7.47
2019-05-17T00:10:29.806Z,7.45
2019-05-17T00:12:59.315Z,7.60
2019-05-17T00:15:28.878Z,7.50
2019-05-17T00:17:59.212Z,7.50
2019-05-17T00:20:29.970Z,7.75
2019-05-17T00:23:00.394Z,7.40
2019-05-17T00:25:29.955Z,8.15
2019-05-17T00:27:59.411Z,7.15
2019-05-17T00:30:28.925Z,7.67
2019-05-17T00:32:58.646Z,8.55
2019-05-17T00:35:28.163Z,8.03
2019-05-17T00:37:58.527Z,7.47
2019-05-17T00:40:27.954Z,8.23
2019-05-17T00:42:57.429Z,8.03
2019-05-17T00:45:26.894Z,8.60
2019-05-17T00:47:57.358Z,8.78
2019-05-17T00:50:27.514Z,8.15
2019-05-17T00:52:58.036Z,9.25
2019-05-17T00:55:29.462Z,8.73
2019-05-17T00:57:58.882Z,8.63
2019-05-17T01:00:29.422Z,8.28
2019-05-17T01:02:58.843Z,8.83
2019-05-17T01:05:29.310Z,8.60
2019-05-17T01:07:58.801Z,8.15
2019-05-17T01:10:28.317Z,8.65
2019-05-17T01:12:58.871Z,8.93
2019-05-17T01:15:30.185Z,8.40
2019-05-17T01:17:59.964Z,8.20
2019-05-17T01:20:29.498Z,9.55
2019-05-17T01:22:58.944Z,9.13
2019-05-17T01:25:30.966Z,9.20
2019-05-17T01:28:00.431Z,9.23
2019-05-17T01:30:33.633Z,10.53
2019-05-17T01:33:06.397Z,10.38
2019-05-17T01:35:38.557Z,10.65
2019-05-17T01:38:07.991Z,11.75
2019-05-17T01:40:37.570Z,12.58
2019-05-17T01:43:09.678Z,12.07
2019-05-17T01:45:39.234Z,13.08
2019-05-17T01:48:11.294Z,12.73
2019-05-17T01:50:40.746Z,13.30
2019-05-17T01:53:11.605Z,13.58
2019-05-17T01:55:43.934Z,14.73
2019-05-17T01:58:13.316Z,14.25
2019-05-17T02:00:46.498Z,14.98
2019-05-17T02:03:20.834Z,15.20
2019-05-17T02:05:51.324Z,15.75
2019-05-17T02:08:21.274Z,16.42
2019-05-17T02:10:53.970Z,16.77
2019-05-17T02:13:23.431Z,18.50
2019-05-17T02:15:52.879Z,18.85
2019-05-17T02:18:22.349Z,19.32
2019-05-17T02:20:52.709Z,19.85
2019-05-17T02:23:22.265Z,19.55
2019-05-17T02:25:56.967Z,20.43
2019-05-17T02:28:23.819Z,20.67
2019-05-17T02:30:55.396Z,22.35
2019-05-17T02:33:24.970Z,21.02
2019-05-17T02:35:54.441Z,21.68
2019-05-17T02:38:25.254Z,21.40
2019-05-17T02:40:54.773Z,21.40
2019-05-17T02:43:25.128Z,21.37
2019-05-17T02:45:55.526Z,22.22
2019-05-17T02:48:25.070Z,21.82
2019-05-17T02:50:54.529Z,23.77
2019-05-17T02:53:25.587Z,22.73
2019-05-17T02:55:55.085Z,23.12
2019-05-17T02:58:25.563Z,23.87
2019-05-17T03:00:55.964Z,23.92
2019-05-17T03:03:26.333Z,24.23
2019-05-17T03:05:55.822Z,24.25
2019-05-17T03:08:25.299Z,23.75
2019-05-17T03:10:54.832Z,25.60
2019-05-17T03:13:24.322Z,24.98
2019-05-17T03:15:54.247Z,26.20
2019-05-17T03:18:23.834Z,25.65
2019-05-17T03:20:53.342Z,26.57
2019-05-17T03:23:23.404Z,26.75
2019-05-17T03:25:54.033Z,27.60
2019-05-17T03:28:24.086Z,27.50
2019-05-17T03:30:56.869Z,27.52
2019-05-17T03:33:35.593Z,27.55
2019-05-17T03:36:06.554Z,28.38
2019-05-17T03:38:34.602Z,29.67
2019-05-17T03:41:17.109Z,28.75
2019-05-17T03:43:35.562Z,27.77
2019-05-17T03:46:09.204Z,29.25
2019-05-17T03:48:39.708Z,30.23
2019-05-17T03:51:13.156Z,28.87
2019-05-17T03:53:44.125Z,29.60
2019-05-17T03:56:14.066Z,31.33
2019-05-17T03:58:43.721Z,30.37
2019-05-17T04:01:14.089Z,31.40
2019-05-17T04:03:43.875Z,30.30
2019-05-17T04:06:13.595Z,31.27
2019-05-17T04:08:43.049Z,32.73
2019-05-17T04:11:22.308Z,33.15
2019-05-17T04:13:43.599Z,34.08
2019-05-17T04:16:13.935Z,35.15
2019-05-17T04:18:44.691Z,35.52
2019-05-17T04:21:14.178Z,34.78
2019-05-17T04:23:43.634Z,35.83
2019-05-17T04:26:18.941Z,36.53
2019-05-17T04:28:48.457Z,38.17
2019-05-17T04:31:25.124Z,38.48
2019-05-17T04:33:54.628Z,39.00
2019-05-17T04:36:24.063Z,41.28
2019-05-17T04:38:57.328Z,39.45
2019-05-17T04:41:41.475Z,40.40
2019-05-17T04:44:02.926Z,39.07
2019-05-17T04:46:33.228Z,40.63
2019-05-17T04:49:03.178Z,39.27
2019-05-17T04:51:32.815Z,40.92
2019-05-17T04:54:03.605Z,40.50
2019-05-17T04:56:33.604Z,41.18
2019-05-17T04:59:04.263Z,40.50
2019-05-17T05:01:36.315Z,42.48
2019-05-17T05:04:07.667Z,41.63
2019-05-17T05:06:37.109Z,48.92
2019-05-17T05:09:07.064Z,44.13
2019-05-17T05:11:51.915Z,45.20
2019-05-17T05:14:07.765Z,45.88
2019-05-17T05:16:37.201Z,45.03
2019-05-17T05:19:08.538Z,45.15
2019-05-17T05:21:38.067Z,53.02
2019-05-17T05:24:07.547Z,46.98
2019-05-17T05:26:36.998Z,47.15
2019-05-17T05:29:06.417Z,46.83
2019-05-17T05:31:35.838Z,47.95
2019-05-17T05:34:05.310Z,46.23
2019-05-17T05:36:34.754Z,45.03
2019-05-17T05:39:07.216Z,46.08
2019-05-17T05:41:36.705Z,44.58
2019-05-17T05:44:06.184Z,42.13
2019-05-17T05:46:35.708Z,40.20
2019-05-17T05:49:06.098Z,42.40
2019-05-17T05:51:35.570Z,39.20
2019-05-17T05:54:08.011Z,39.65
2019-05-17T05:56:37.441Z,39.30
2019-05-17T05:59:06.929Z,38.73
2019-05-17T06:01:36.457Z,38.75
2019-05-17T06:04:07.831Z,40.28
2019-05-17T06:06:41.490Z,39.67
2019-05-17T06:09:12.001Z,39.83
2019-05-17T06:11:42.574Z,41.35
2019-05-17T06:14:12.965Z,41.10
2019-05-17T06:16:42.676Z,41.23
2019-05-17T06:19:14.095Z,42.48
2019-05-17T06:21:43.542Z,41.63
2019-05-17T06:24:13.065Z,40.78
2019-05-17T06:26:44.866Z,41.45
2019-05-17T06:29:14.285Z,42.03
2019-05-17T06:31:43.758Z,41.98
2019-05-17T06:34:13.372Z,41.45
2019-05-17T06:36:42.802Z,39.88
2019-05-17T06:39:13.184Z,41.30
2019-05-17T06:41:42.632Z,40.10
2019-05-17T06:44:12.366Z,39.13
2019-05-17T06:46:42.076Z,38.90
2019-05-17T06:49:13.353Z,38.28
2019-05-17T06:51:42.846Z,38.50
2019-05-17T06:54:15.566Z,37.98
2019-05-17T06:56:46.707Z,36.58
2019-05-17T06:59:16.222Z,36.60
2019-05-17T07:01:45.662Z,39.10
2019-05-17T07:04:15.129Z,36.83
2019-05-17T07:06:46.321Z,36.00
2019-05-17T07:09:19.530Z,36.75
2019-05-17T07:14:17.313Z,36.03
2019-05-17T07:16:47.533Z,34.53
2019-05-17T07:19:16.982Z,33.73
2019-05-17T07:21:46.477Z,36.20
2019-05-17T07:24:21.243Z,34.43
2019-05-17T07:26:50.718Z,35.10
2019-05-17T07:29:20.336Z,35.75
2019-05-17T07:31:49.849Z,37.13
2019-05-17T07:34:21.176Z,36.13
2019-05-17T07:36:51.606Z,37.00
2019-05-17T07:39:21.085Z,38.25
2019-05-17T07:41:50.580Z,37.20
2019-05-17T07:44:20.551Z,39.92
2019-05-17T07:46:51.822Z,38.80
2019-05-17T07:51:54.100Z,39.70
2019-05-17T07:54:24.489Z,40.78
2019-05-17T07:56:55.002Z,40.38
2019-05-17T07:59:24.472Z,39.73
2019-05-17T08:01:54.857Z,38.63
2019-05-17T08:04:24.501Z,39.27
2019-05-17T08:06:56.284Z,38.45
2019-05-17T08:09:25.751Z,38.60
2019-05-17T08:11:59.599Z,38.13
2019-05-17T08:14:31.096Z,37.30
2019-05-17T08:16:59.842Z,38.25
2019-05-17T08:19:31.047Z,37.78
2019-05-17T08:22:00.519Z,36.85
2019-05-17T08:24:30.383Z,35.95
2019-05-17T08:27:00.067Z,36.03
2019-05-17T08:29:29.820Z,36.17
2019-05-17T08:32:00.358Z,36.23
2019-05-17T08:34:29.929Z,36.15
2019-05-17T08:37:01.074Z,35.95
2019-05-17T08:39:31.573Z,37.75
2019-05-17T08:42:02.008Z,37.05
2019-05-17T08:44:32.565Z,37.60
2019-05-17T08:47:03.747Z,33.90
2019-05-17T08:49:33.192Z,34.88
2019-05-17T08:52:02.757Z,35.15
2019-05-17T08:54:32.175Z,34.20
2019-05-17T08:57:01.869Z,34.33
2019-05-17T08:59:31.409Z,35.05
2019-05-17T09:02:00.843Z,34.58
2019-05-17T09:04:31.933Z,36.42
2019-05-17T09:07:03.206Z,36.23
2019-05-17T09:09:32.424Z,37.95
2019-05-17T09:12:01.771Z,37.50
2019-05-17T09:14:33.074Z,40.10
2019-05-17T09:17:02.511Z,38.48
2019-05-17T09:19:32.028Z,37.15
2019-05-17T09:22:01.556Z,36.03
2019-05-17T09:24:32.105Z,37.50
2019-05-17T09:27:02.715Z,35.98
2019-05-17T09:29:34.218Z,35.52
2019-05-17T09:32:03.916Z,35.40
2019-05-17T09:34:34.274Z,38.20
2019-05-17T09:37:03.714Z,36.33
2019-05-17T09:39:33.185Z,36.77
2019-05-17T09:42:02.632Z,33.45
2019-05-17T09:44:32.236Z,32.25
2019-05-17T09:47:02.655Z,32.35
2019-05-17T09:49:32.126Z,30.10
2019-05-17T09:52:01.572Z,30.57
2019-05-17T09:54:41.695Z,29.98
2019-05-17T09:57:02.097Z,28.12
2019-05-17T09:59:31.556Z,29.90
2019-05-17T10:02:01.089Z,30.12
2019-05-17T10:04:30.663Z,30.00
2019-05-17T10:07:00.132Z,30.37
2019-05-17T10:09:29.572Z,30.27
2019-05-17T10:12:00.659Z,29.32
2019-05-17T10:14:31.496Z,29.50
2019-05-17T10:17:01.020Z,26.90
2019-05-17T10:19:30.509Z,29.15
2019-05-17T10:22:00.024Z,26.57
2019-05-17T10:24:38.110Z,25.92
2019-05-17T10:27:01.543Z,28.00
2019-05-17T10:29:31.077Z,26.23
2019-05-17T10:32:00.653Z,27.50
2019-05-17T10:34:32.690Z,28.38
2019-05-17T10:37:07.578Z,28.00
2019-05-17T10:39:41.517Z,28.57
2019-05-17T10:42:13.377Z,29.37
2019-05-17T10:44:47.839Z,29.02
2019-05-17T10:47:22.465Z,30.12
2019-05-17T10:49:55.114Z,30.43
2019-05-17T10:52:31.982Z,30.90
2019-05-17T10:55:10.581Z,28.50
2019-05-17T10:57:43.462Z,28.15
2019-05-17T11:00:19.574Z,27.58
2019-05-17T11:02:50.284Z,27.32
2019-05-17T11:05:30.796Z,28.10
2019-05-17T11:10:56.082Z,28.05
2019-05-17T11:13:27.570Z,28.17
2019-05-17T11:16:04.603Z,28.32
2019-05-17T11:18:59.654Z,27.85
2019-05-17T11:21:25.268Z,28.12
2019-05-17T11:23:56.175Z,26.75
2019-05-17T11:26:33.782Z,27.48
2019-05-17T11:29:08.151Z,26.27
2019-05-17T11:31:40.131Z,25.35
2019-05-17T11:34:11.049Z,25.43
2019-05-17T11:36:46.209Z,25.65
2019-05-17T11:39:28.616Z,24.43
2019-05-17T11:42:01.350Z,22.90
2019-05-17T11:44:35.285Z,24.47
2019-05-17T11:47:06.772Z,23.35
2019-05-17T11:49:40.584Z,22.87
2019-05-17T11:52:15.000Z,23.05
2019-05-17T11:54:46.670Z,21.62
2019-05-17T11:57:25.543Z,22.07
2019-05-17T12:00:02.041Z,20.08
2019-05-17T12:02:47.035Z,17.50
2019-05-17T12:05:20.857Z,17.95
2019-05-17T12:07:50.559Z,16.10
2019-05-17T12:10:31.762Z,15.80
2019-05-17T12:13:14.708Z,16.30
2019-05-17T12:15:46.465Z,14.80
2019-05-17T12:18:15.932Z,14.90
2019-05-17T12:20:51.835Z,14.95
2019-05-17T12:23:31.258Z,15.13
2019-05-17T12:26:00.786Z,14.60
2019-05-17T12:28:30.341Z,13.65
2019-05-17T12:30:59.799Z,13.53
2019-05-17T12:33:30.225Z,14.03
2019-05-17T12:35:59.722Z,13.18
2019-05-17T12:38:29.350Z,13.30
2019-05-17T12:40:58.872Z,13.10
2019-05-17T12:43:30.218Z,15.28
2019-05-17T12:46:01.778Z,16.70
2019-05-17T12:48:31.503Z,16.67
2019-05-17T12:51:02.979Z,16.87
2019-05-17T12:53:32.403Z,17.23
2019-05-17T12:56:01.955Z,17.52
2019-05-17T12:58:31.438Z,17.90
2019-05-17T13:01:00.908Z,17.85
2019-05-17T13:03:30.339Z,17.85
2019-05-17T13:05:59.866Z,18.23
2019-05-17T13:08:29.370Z,16.50
2019-05-17T13:10:58.839Z,17.52
2019-05-17T13:13:29.397Z,17.77
2019-05-17T13:15:58.899Z,16.20
2019-05-17T13:18:28.419Z,14.00
2019-05-17T13:20:59.945Z,14.90
2019-05-17T13:23:30.357Z,15.05
2019-05-17T13:26:03.395Z,15.30
2019-05-17T13:28:33.783Z,16.97
2019-05-17T13:31:03.235Z,18.92
2019-05-17T13:33:34.318Z,19.65
2019-05-17T13:36:03.916Z,20.25
2019-05-17T13:38:50.849Z,19.82
2019-05-17T13:41:21.281Z,18.77
2019-05-17T13:43:50.687Z,20.25
2019-05-17T13:46:32.252Z,18.90
2019-05-17T13:48:51.449Z,19.25
2019-05-17T13:51:20.961Z,18.62
2019-05-17T13:53:50.921Z,17.87
2019-05-17T14:07:15.238Z,15.32
2019-05-17T14:48:55.478Z,19.65
2019-05-17T16:27:43.199Z,19.23
2019-05-17T16:30:13.023Z,19.92
2019-05-17T16:32:48.313Z,20.12
2019-05-17T16:35:21.124Z,20.32
2019-05-17T16:40:20.776Z,19.70
2019-05-17T16:42:52.854Z,19.73
2019-05-17T16:45:22.223Z,19.00
2019-05-17T16:47:51.700Z,19.00
2019-05-17T16:50:21.131Z,19.30
2019-05-17T16:53:05.067Z,18.48
2019-05-17T16:55:29.535Z,19.00
2019-05-17T16:57:59.053Z,18.40
2019-05-17T17:00:34.619Z,19.35
2019-05-17T17:03:05.648Z,18.07
2019-05-17T17:05:36.318Z,19.42
2019-05-17T17:08:07.473Z,18.37
2019-05-17T17:10:36.965Z,18.82
2019-05-17T17:13:06.516Z,19.37
2019-05-17T17:15:36.077Z,19.07
2019-05-17T17:18:06.032Z,18.75
2019-05-17T17:20:35.500Z,19.42
2019-05-17T17:23:07.376Z,19.12
2019-05-17T17:25:47.590Z,19.60
2019-05-17T17:28:17.116Z,17.75
2019-05-17T17:30:46.600Z,18.60
2019-05-17T17:33:17.537Z,19.20
2019-05-17T17:35:47.189Z,20.00
2019-05-17T17:38:16.856Z,18.55
2019-05-17T17:40:48.583Z,18.75
2019-05-17T17:43:18.052Z,18.77
2019-05-17T17:45:48.517Z,19.52
2019-05-17T17:48:19.249Z,18.70
2019-05-17T17:50:48.790Z,18.75
2019-05-17T17:53:18.336Z,18.00
2019-05-17T17:55:48.071Z,19.45
2019-05-17T17:58:17.578Z,18.62
2019-05-17T18:00:47.181Z,18.27
2019-05-17T18:03:20.521Z,19.17
2019-05-17T18:05:55.896Z,19.27
2019-05-17T18:08:25.463Z,19.00
2019-05-17T18:10:55.020Z,18.62
2019-05-17T18:13:24.608Z,18.73
2019-05-17T18:15:54.102Z,18.52
2019-05-17T18:18:23.573Z,18.35
2019-05-17T18:20:54.551Z,18.65
2019-05-17T18:23:24.103Z,18.48
2019-05-17T18:25:55.770Z,18.90
2019-05-17T18:28:25.196Z,18.25
2019-05-17T18:30:54.721Z,18.87
2019-05-17T18:33:25.438Z,18.27
2019-05-17T18:35:54.938Z,18.87
2019-05-17T18:38:27.393Z,18.73
2019-05-17T18:40:56.862Z,18.25
2019-05-17T18:43:29.352Z,18.02
2019-05-17T18:45:58.881Z,18.87
2019-05-17T18:48:29.501Z,18.02
2019-05-17T18:50:59.128Z,18.32
2019-05-17T18:53:29.874Z,19.35
2019-05-17T18:56:00.278Z,19.07
2019-05-17T18:58:29.789Z,18.20
2019-05-17T19:01:02.572Z,20.68
2019-05-17T19:03:34.209Z,19.95
2019-05-17T19:06:03.729Z,19.52
2019-05-17T19:08:33.168Z,19.12
2019-05-17T19:11:03.650Z,19.00
2019-05-17T19:13:34.097Z,18.42
2019-05-17T19:16:03.597Z,17.82
2019-05-17T19:18:33.064Z,18.95
2019-05-17T19:21:02.572Z,19.23
2019-05-17T19:23:34.225Z,18.40
2019-05-17T19:26:03.809Z,19.07
2019-05-17T19:28:36.299Z,18.98
2019-05-17T19:31:06.505Z,19.53
2019-05-17T19:33:35.973Z,19.10
2019-05-17T19:36:05.473Z,19.35
2019-05-17T19:38:36.242Z,19.60
2019-05-17T19:41:07.245Z,20.50
2019-05-17T19:43:40.201Z,20.68
2019-05-17T19:46:13.568Z,19.57
2019-05-17T19:48:43.091Z,19.50
2019-05-17T19:51:12.809Z,19.17
2019-05-17T19:53:44.160Z,18.75
2019-05-17T19:56:14.522Z,19.30
2019-05-17T19:58:45.909Z,19.75
2019-05-17T20:01:15.416Z,19.85
2019-05-17T20:03:45.287Z,19.75
2019-05-17T20:06:14.880Z,20.60
2019-05-17T20:08:44.356Z,19.92
2019-05-17T20:11:13.916Z,20.23
2019-05-17T20:13:44.468Z,20.27
2019-05-17T20:16:17.049Z,21.05
2019-05-17T20:18:46.552Z,20.52
2019-05-17T20:21:16.032Z,19.67
2019-05-17T20:23:45.546Z,19.90
2019-05-17T20:26:15.129Z,21.75
2019-05-17T20:28:45.633Z,21.68
2019-05-17T20:31:15.173Z,20.08
2019-05-17T20:33:44.729Z,21.20
2019-05-17T20:36:16.380Z,21.52
2019-05-17T20:38:46.930Z,20.85
2019-05-17T20:41:16.380Z,22.00
2019-05-17T20:43:46.929Z,21.27
2019-05-17T20:46:18.487Z,21.60
2019-05-17T20:48:48.091Z,21.37
2019-05-17T20:51:17.546Z,21.12
2019-05-17T20:53:47.310Z,22.13
2019-05-17T20:56:32.017Z,22.90
2019-05-17T20:58:49.976Z,23.45
2019-05-17T21:01:20.478Z,24.23
2019-05-17T21:03:51.460Z,23.57
2019-05-17T21:06:20.981Z,24.12
2019-05-17T21:08:51.410Z,24.20
2019-05-17T21:11:22.009Z,23.83
2019-05-17T21:13:51.618Z,24.45
2019-05-17T21:16:21.050Z,24.27
2019-05-17T21:18:51.546Z,24.45
2019-05-17T21:21:21.089Z,24.47
2019-05-17T21:23:51.555Z,24.85
2019-05-17T21:26:21.918Z,26.80
2019-05-17T21:28:51.371Z,25.37
2019-05-17T21:31:21.841Z,24.85
2019-05-17T21:33:52.265Z,24.50
2019-05-17T21:36:23.070Z,25.77
2019-05-17T21:38:54.529Z,25.12
2019-05-17T21:41:29.666Z,24.32
2019-05-17T21:44:01.357Z,25.60
2019-05-17T21:46:32.868Z,25.35
2019-05-17T21:49:03.235Z,24.63
2019-05-17T21:51:32.704Z,25.43
2019-05-17T21:54:04.162Z,25.45
2019-05-17T21:56:33.625Z,27.22
2019-05-17T21:59:03.113Z,26.65
2019-05-17T22:01:33.999Z,25.97
2019-05-17T22:04:03.851Z,27.13
2019-05-17T22:06:33.298Z,26.25
2019-05-17T22:09:04.341Z,27.07
2019-05-17T22:11:35.494Z,25.92
2019-05-17T22:14:05.007Z,26.82
2019-05-17T22:16:34.458Z,26.23
2019-05-17T22:19:05.976Z,26.75
2019-05-17T22:21:35.496Z,25.43
2019-05-17T22:24:05.094Z,26.60
2019-05-17T22:26:34.558Z,25.92
2019-05-17T22:29:04.159Z,26.45
2019-05-17T22:31:33.699Z,25.85
2019-05-17T22:34:04.788Z,25.97
2019-05-17T22:36:34.287Z,24.55
2019-05-17T22:39:06.540Z,25.57
2019-05-17T22:41:36.070Z,26.55
2019-05-17T22:44:08.063Z,25.23
2019-05-17T22:46:38.374Z,26.40
2019-05-17T22:49:09.745Z,26.60
2019-05-17T22:51:41.062Z,26.27
2019-05-17T22:54:13.013Z,25.43
2019-05-17T22:59:12.005Z,24.77
2019-05-17T23:01:44.934Z,25.08
2019-05-17T23:04:15.345Z,25.57
2019-05-17T23:06:44.867Z,26.07
2019-05-17T23:09:20.030Z,25.50
2019-05-17T23:11:52.793Z,25.70
2019-05-17T23:14:22.484Z,26.35
2019-05-17T23:16:55.576Z,25.62
2019-05-17T23:19:25.091Z,25.92
2019-05-17T23:21:54.669Z,26.45
2019-05-17T23:24:24.134Z,26.65
2019-05-17T23:26:55.613Z,25.72
2019-05-17T23:29:26.607Z,27.52
2019-05-17T23:31:56.084Z,27.05
2019-05-17T23:34:27.538Z,27.00
2019-05-17T23:36:57.337Z,26.65
2019-05-17T23:39:28.270Z,26.48
2019-05-17T23:41:57.748Z,26.35
2019-05-17T23:44:27.194Z,27.58
2019-05-17T23:47:06.613Z,26.57
2019-05-17T23:49:27.806Z,27.37
2019-05-17T23:51:57.276Z,27.75
2019-05-17T23:54:26.736Z,27.70
2019-05-17T23:56:56.216Z,27.30
2019-05-17T23:59:25.715Z,26.55
